sensor_id;sensor_type;location;lat;lon;timestamp;P1;durP1;ratioP1;P2;durP2;ratioP2
31182;SDS011;17813;0.000;0.000;2023-09-19T00:02:07;3.77;;;2.00;;
31182;SDS011;17813;0.000;0.000;2023-09-19T00:04:39;2.87;;;1.70;;
31182;SDS011;17813;0.000;0.000;2023-09-19T00:07:12;3.47;;;1.80;;
31182;SDS011;17813;0.000;0.000;2023-09-19T00:09:48;2.27;;;1.60;;
31182;SDS011;17813;0.000;0.000;2023-09-19T00:12:22;2.40;;;1.57;;
31182;SDS011;17813;0.000;0.000;2023-09-19T00:14:49;3.90;;;1.60;;
31182;SDS011;17813;0.000;0.000;2023-09-19T00:17:29;2.00;;;1.60;;
31182;SDS011;17813;0.000;0.000;2023-09-19T00:20:03;2.77;;;1.60;;
31182;SDS011;17813;0.000;0.000;2023-09-19T00:22:40;2.47;;;1.40;;
31182;SDS011;17813;0.000;0.000;2023-09-19T00:25:15;1.53;;;1.43;;
31182;SDS011;17813;0.000;0.000;2023-09-19T00:27:47;2.30;;;1.70;;
31182;SDS011;17813;0.000;0.000;2023-09-19T00:30:21;2.97;;;1.60;;
31182;SDS011;17813;0.000;0.000;2023-09-19T00:32:55;1.93;;;1.60;;
31182;SDS011;17813;0.000;0.000;2023-09-19T00:35:31;2.97;;;1.60;;
31182;SDS011;17813;0.000;0.000;2023-09-19T00:38:08;1.93;;;1.63;;
31182;SDS011;17813;0.000;0.000;2023-09-19T00:40:43;3.27;;;1.40;;
31182;SDS011;17813;0.000;0.000;2023-09-19T00:43:15;1.50;;;1.40;;
31182;SDS011;17813;0.000;0.000;2023-09-19T00:46:04;2.77;;;1.60;;
31182;SDS011;17813;0.000;0.000;2023-09-19T00:48:41;1.90;;;1.37;;
31182;SDS011;17813;0.000;0.000;2023-09-19T00:51:15;3.57;;;1.60;;
31182;SDS011;17813;0.000;0.000;2023-09-19T00:53:52;1.90;;;1.50;;
31182;SDS011;17813;0.000;0.000;2023-09-19T00:56:28;1.07;;;1.07;;
31182;SDS011;17813;0.000;0.000;2023-09-19T00:59:04;1.40;;;1.30;;
31182;SDS011;17813;0.000;0.000;2023-09-19T01:01:41;2.20;;;1.50;;
31182;SDS011;17813;0.000;0.000;2023-09-19T01:04:20;2.10;;;1.40;;
31182;SDS011;17813;0.000;0.000;2023-09-19T01:06:53;1.33;;;1.23;;
31182;SDS011;17813;0.000;0.000;2023-09-19T01:09:26;1.40;;;1.30;;
31182;SDS011;17813;0.000;0.000;2023-09-19T01:11:58;1.50;;;1.23;;
31182;SDS011;17813;0.000;0.000;2023-09-19T01:14:50;2.23;;;1.33;;
31182;SDS011;17813;0.000;0.000;2023-09-19T01:17:46;2.60;;;1.50;;
31182;SDS011;17813;0.000;0.000;2023-09-19T01:20:31;1.40;;;1.30;;
31182;SDS011;17813;0.000;0.000;2023-09-19T01:23:37;1.83;;;1.30;;
31182;SDS011;17813;0.000;0.000;2023-09-19T01:29:23;1.50;;;1.40;;
31182;SDS011;17813;0.000;0.000;2023-09-19T01:32:17;1.63;;;1.50;;
31182;SDS011;17813;0.000;0.000;2023-09-19T01:34:58;1.73;;;1.50;;
31182;SDS011;17813;0.000;0.000;2023-09-19T01:37:31;1.30;;;1.20;;
31182;SDS011;17813;0.000;0.000;2023-09-19T01:40:21;2.07;;;1.33;;
31182;SDS011;17813;0.000;0.000;2023-09-19T01:43:00;2.20;;;1.30;;
31182;SDS011;17813;0.000;0.000;2023-09-19T01:54:30;1.70;;;1.57;;
31182;SDS011;17813;0.000;0.000;2023-09-19T02:00:08;1.47;;;1.37;;
31182;SDS011;17813;0.000;0.000;2023-09-19T02:02:39;2.30;;;1.53;;
31182;SDS011;17813;0.000;0.000;2023-09-19T02:05:27;1.37;;;1.10;;
31182;SDS011;17813;0.000;0.000;2023-09-19T02:08:16;2.13;;;1.30;;
31182;SDS011;17813;0.000;0.000;2023-09-19T02:10:55;2.10;;;1.30;;
31182;SDS011;17813;0.000;0.000;2023-09-19T02:13:31;1.77;;;1.37;;
31182;SDS011;17813;0.000;0.000;2023-09-19T02:16:17;2.03;;;1.50;;
31182;SDS011;17813;0.000;0.000;2023-09-19T02:18:48;1.67;;;1.33;;
31182;SDS011;17813;0.000;0.000;2023-09-19T02:21:34;2.03;;;1.57;;
31182;SDS011;17813;0.000;0.000;2023-09-19T02:24:02;1.50;;;1.40;;
31182;SDS011;17813;0.000;0.000;2023-09-19T02:26:29;2.90;;;1.47;;
31182;SDS011;17813;0.000;0.000;2023-09-19T02:29:02;2.10;;;1.30;;
31182;SDS011;17813;0.000;0.000;2023-09-19T02:31:35;1.50;;;1.40;;
31182;SDS011;17813;0.000;0.000;2023-09-19T02:34:06;3.20;;;1.43;;
31182;SDS011;17813;0.000;0.000;2023-09-19T02:36:37;2.10;;;1.30;;
31182;SDS011;17813;0.000;0.000;2023-09-19T02:39:09;1.97;;;1.27;;
31182;SDS011;17813;0.000;0.000;2023-09-19T02:41:39;1.50;;;1.40;;
31182;SDS011;17813;0.000;0.000;2023-09-19T02:44:07;2.10;;;1.57;;
31182;SDS011;17813;0.000;0.000;2023-09-19T02:46:34;2.30;;;1.63;;
31182;SDS011;17813;0.000;0.000;2023-09-19T02:49:10;1.83;;;1.40;;
31182;SDS011;17813;0.000;0.000;2023-09-19T02:51:43;1.83;;;1.40;;
31182;SDS011;17813;0.000;0.000;2023-09-19T02:54:21;2.37;;;1.50;;
31182;SDS011;17813;0.000;0.000;2023-09-19T02:57:04;1.77;;;1.47;;
31182;SDS011;17813;0.000;0.000;2023-09-19T02:59:48;1.77;;;1.40;;
31182;SDS011;17813;0.000;0.000;2023-09-19T03:02:38;1.83;;;1.30;;
31182;SDS011;17813;0.000;0.000;2023-09-19T03:05:17;3.27;;;1.40;;
31182;SDS011;17813;0.000;0.000;2023-09-19T03:07:48;1.77;;;1.40;;
31182;SDS011;17813;0.000;0.000;2023-09-19T03:10:31;2.13;;;1.40;;
31182;SDS011;17813;0.000;0.000;2023-09-19T03:13:04;1.60;;;1.40;;
31182;SDS011;17813;0.000;0.000;2023-09-19T03:15:35;1.43;;;1.33;;
31182;SDS011;17813;0.000;0.000;2023-09-19T03:18:06;2.63;;;1.47;;
31182;SDS011;17813;0.000;0.000;2023-09-19T03:21:01;1.80;;;1.27;;
31182;SDS011;17813;0.000;0.000;2023-09-19T03:23:28;3.27;;;1.67;;
31182;SDS011;17813;0.000;0.000;2023-09-19T03:26:06;1.67;;;1.40;;
31182;SDS011;17813;0.000;0.000;2023-09-19T03:28:51;2.03;;;1.73;;
31182;SDS011;17813;0.000;0.000;2023-09-19T03:31:18;1.63;;;1.53;;
31182;SDS011;17813;0.000;0.000;2023-09-19T03:33:52;1.77;;;1.53;;
31182;SDS011;17813;0.000;0.000;2023-09-19T03:36:40;3.00;;;1.50;;
31182;SDS011;17813;0.000;0.000;2023-09-19T03:39:07;1.47;;;1.30;;
31182;SDS011;17813;0.000;0.000;2023-09-19T03:41:44;1.60;;;1.50;;
31182;SDS011;17813;0.000;0.000;2023-09-19T03:44:21;1.93;;;1.47;;
31182;SDS011;17813;0.000;0.000;2023-09-19T03:46:47;3.37;;;1.63;;
31182;SDS011;17813;0.000;0.000;2023-09-19T03:49:20;2.57;;;1.50;;
31182;SDS011;17813;0.000;0.000;2023-09-19T03:52:07;3.70;;;1.60;;
31182;SDS011;17813;0.000;0.000;2023-09-19T03:54:33;2.17;;;1.67;;
31182;SDS011;17813;0.000;0.000;2023-09-19T03:57:01;1.87;;;1.40;;
31182;SDS011;17813;0.000;0.000;2023-09-19T03:59:38;2.37;;;1.50;;
31182;SDS011;17813;0.000;0.000;2023-09-19T04:02:05;4.83;;;1.60;;
31182;SDS011;17813;0.000;0.000;2023-09-19T04:04:45;2.40;;;1.47;;
31182;SDS011;17813;0.000;0.000;2023-09-19T04:07:18;2.00;;;1.40;;
31182;SDS011;17813;0.000;0.000;2023-09-19T04:09:48;2.83;;;1.60;;
31182;SDS011;17813;0.000;0.000;2023-09-19T04:12:15;1.40;;;1.30;;
31182;SDS011;17813;0.000;0.000;2023-09-19T04:14:43;2.60;;;1.43;;
31182;SDS011;17813;0.000;0.000;2023-09-19T04:17:16;1.53;;;1.40;;
31182;SDS011;17813;0.000;0.000;2023-09-19T04:19:44;1.60;;;1.50;;
31182;SDS011;17813;0.000;0.000;2023-09-19T04:22:11;2.47;;;1.43;;
31182;SDS011;17813;0.000;0.000;2023-09-19T04:24:38;1.90;;;1.40;;
31182;SDS011;17813;0.000;0.000;2023-09-19T04:27:05;1.80;;;1.50;;
31182;SDS011;17813;0.000;0.000;2023-09-19T04:29:37;1.80;;;1.40;;
31182;SDS011;17813;0.000;0.000;2023-09-19T04:32:36;1.83;;;1.40;;
31182;SDS011;17813;0.000;0.000;2023-09-19T04:35:10;1.97;;;1.50;;
31182;SDS011;17813;0.000;0.000;2023-09-19T04:37:37;1.63;;;1.43;;
31182;SDS011;17813;0.000;0.000;2023-09-19T04:40:08;1.60;;;1.50;;
31182;SDS011;17813;0.000;0.000;2023-09-19T04:42:43;1.60;;;1.50;;
31182;SDS011;17813;0.000;0.000;2023-09-19T04:45:11;1.70;;;1.40;;
31182;SDS011;17813;0.000;0.000;2023-09-19T04:47:38;1.90;;;1.50;;
31182;SDS011;17813;0.000;0.000;2023-09-19T04:50:08;2.00;;;1.60;;
31182;SDS011;17813;0.000;0.000;2023-09-19T04:52:44;1.50;;;1.40;;
31182;SDS011;17813;0.000;0.000;2023-09-19T04:55:23;1.83;;;1.40;;
31182;SDS011;17813;0.000;0.000;2023-09-19T04:58:16;1.57;;;1.40;;
31182;SDS011;17813;0.000;0.000;2023-09-19T05:01:01;1.30;;;1.20;;
31182;SDS011;17813;0.000;0.000;2023-09-19T05:03:28;1.80;;;1.63;;
31182;SDS011;17813;0.000;0.000;2023-09-19T05:05:56;2.30;;;1.67;;
31182;SDS011;17813;0.000;0.000;2023-09-19T05:08:25;1.50;;;1.40;;
31182;SDS011;17813;0.000;0.000;2023-09-19T05:10:54;1.93;;;1.50;;
31182;SDS011;17813;0.000;0.000;2023-09-19T05:13:21;1.60;;;1.43;;
31182;SDS011;17813;0.000;0.000;2023-09-19T05:15:53;1.73;;;1.57;;
31182;SDS011;17813;0.000;0.000;2023-09-19T05:18:36;4.30;;;3.17;;
31182;SDS011;17813;0.000;0.000;2023-09-19T05:21:03;5.07;;;2.87;;
31182;SDS011;17813;0.000;0.000;2023-09-19T05:23:31;2.00;;;1.80;;
31182;SDS011;17813;0.000;0.000;2023-09-19T05:25:58;2.17;;;1.70;;
31182;SDS011;17813;0.000;0.000;2023-09-19T05:28:26;3.30;;;1.60;;
31182;SDS011;17813;0.000;0.000;2023-09-19T05:31:02;2.23;;;1.50;;
31182;SDS011;17813;0.000;0.000;2023-09-19T05:33:30;1.50;;;1.40;;
31182;SDS011;17813;0.000;0.000;2023-09-19T05:35:57;2.47;;;1.37;;
31182;SDS011;17813;0.000;0.000;2023-09-19T05:38:25;1.73;;;1.40;;
31182;SDS011;17813;0.000;0.000;2023-09-19T05:41:08;1.63;;;1.40;;
31182;SDS011;17813;0.000;0.000;2023-09-19T05:43:39;1.50;;;1.40;;
31182;SDS011;17813;0.000;0.000;2023-09-19T05:46:07;2.40;;;1.50;;
31182;SDS011;17813;0.000;0.000;2023-09-19T05:48:34;2.20;;;1.53;;
31182;SDS011;17813;0.000;0.000;2023-09-19T05:51:01;3.20;;;1.37;;
31182;SDS011;17813;0.000;0.000;2023-09-19T05:53:29;2.10;;;1.50;;
31182;SDS011;17813;0.000;0.000;2023-09-19T05:55:55;2.87;;;1.60;;
31182;SDS011;17813;0.000;0.000;2023-09-19T05:58:24;1.47;;;1.37;;
31182;SDS011;17813;0.000;0.000;2023-09-19T06:00:51;3.33;;;1.70;;
31182;SDS011;17813;0.000;0.000;2023-09-19T06:03:18;2.83;;;1.57;;
31182;SDS011;17813;0.000;0.000;2023-09-19T06:05:46;2.20;;;1.40;;
31182;SDS011;17813;0.000;0.000;2023-09-19T06:08:16;3.13;;;1.40;;
31182;SDS011;17813;0.000;0.000;2023-09-19T06:10:45;2.80;;;1.50;;
31182;SDS011;17813;0.000;0.000;2023-09-19T06:13:12;3.23;;;1.60;;
31182;SDS011;17813;0.000;0.000;2023-09-19T06:15:41;2.73;;;1.70;;
31182;SDS011;17813;0.000;0.000;2023-09-19T06:18:11;3.17;;;1.60;;
31182;SDS011;17813;0.000;0.000;2023-09-19T06:20:46;1.70;;;1.43;;
31182;SDS011;17813;0.000;0.000;2023-09-19T06:23:20;1.30;;;1.20;;
31182;SDS011;17813;0.000;0.000;2023-09-19T06:25:49;2.17;;;1.27;;
31182;SDS011;17813;0.000;0.000;2023-09-19T06:28:17;1.93;;;1.60;;
31182;SDS011;17813;0.000;0.000;2023-09-19T06:30:54;1.17;;;1.05;;
31182;SDS011;17813;0.000;0.000;2023-09-19T06:33:35;1.30;;;1.20;;
31182;SDS011;17813;0.000;0.000;2023-09-19T06:36:06;2.45;;;1.40;;
31182;SDS011;17813;0.000;0.000;2023-09-19T06:38:35;1.50;;;1.10;;
31182;SDS011;17813;0.000;0.000;2023-09-19T06:41:05;2.22;;;1.17;;
31182;SDS011;17813;0.000;0.000;2023-09-19T06:43:40;1.40;;;1.10;;
31182;SDS011;17813;0.000;0.000;2023-09-19T06:46:08;0.90;;;0.90;;
31182;SDS011;17813;0.000;0.000;2023-09-19T06:48:35;5.15;;;1.50;;
31182;SDS011;17813;0.000;0.000;2023-09-19T06:51:02;1.10;;;1.00;;
31182;SDS011;17813;0.000;0.000;2023-09-19T06:53:31;1.13;;;1.02;;
31182;SDS011;17813;0.000;0.000;2023-09-19T06:56:01;1.80;;;1.10;;
31182;SDS011;17813;0.000;0.000;2023-09-19T06:58:29;2.10;;;1.00;;
31182;SDS011;17813;0.000;0.000;2023-09-19T07:00:57;1.15;;;1.00;;
31182;SDS011;17813;0.000;0.000;2023-09-19T07:03:24;1.52;;;1.10;;
31182;SDS011;17813;0.000;0.000;2023-09-19T07:05:54;0.73;;;0.73;;
31182;SDS011;17813;0.000;0.000;2023-09-19T07:08:23;1.40;;;1.10;;
31182;SDS011;17813;0.000;0.000;2023-09-19T07:10:51;1.40;;;1.00;;
31182;SDS011;17813;0.000;0.000;2023-09-19T07:13:18;1.23;;;1.10;;
31182;SDS011;17813;0.000;0.000;2023-09-19T07:15:45;1.67;;;1.10;;
31182;SDS011;17813;0.000;0.000;2023-09-19T07:18:14;1.67;;;1.02;;
31182;SDS011;17813;0.000;0.000;2023-09-19T07:20:42;0.82;;;0.80;;
31182;SDS011;17813;0.000;0.000;2023-09-19T07:23:21;1.63;;;0.95;;
31182;SDS011;17813;0.000;0.000;2023-09-19T07:25:49;1.05;;;0.90;;
31182;SDS011;17813;0.000;0.000;2023-09-19T07:28:16;1.63;;;1.05;;
31182;SDS011;17813;0.000;0.000;2023-09-19T07:30:44;1.33;;;0.90;;
31182;SDS011;17813;0.000;0.000;2023-09-19T07:33:15;1.15;;;1.00;;
31182;SDS011;17813;0.000;0.000;2023-09-19T07:35:46;1.30;;;1.00;;
31182;SDS011;17813;0.000;0.000;2023-09-19T07:38:14;1.58;;;0.95;;
31182;SDS011;17813;0.000;0.000;2023-09-19T07:40:41;2.05;;;1.15;;
31182;SDS011;17813;0.000;0.000;2023-09-19T07:43:08;4.03;;;1.00;;
31182;SDS011;17813;0.000;0.000;2023-09-19T07:45:36;1.25;;;0.82;;
31182;SDS011;17813;0.000;0.000;2023-09-19T07:48:13;1.30;;;1.10;;
31182;SDS011;17813;0.000;0.000;2023-09-19T07:50:41;1.17;;;0.90;;
31182;SDS011;17813;0.000;0.000;2023-09-19T07:53:11;1.65;;;1.05;;
31182;SDS011;17813;0.000;0.000;2023-09-19T07:56:04;1.65;;;1.10;;
31182;SDS011;17813;0.000;0.000;2023-09-19T07:58:34;2.55;;;0.90;;
31182;SDS011;17813;0.000;0.000;2023-09-19T08:01:04;1.10;;;1.00;;
31182;SDS011;17813;0.000;0.000;2023-09-19T08:03:33;1.38;;;0.98;;
31182;SDS011;17813;0.000;0.000;2023-09-19T08:06:01;1.67;;;0.90;;
31182;SDS011;17813;0.000;0.000;2023-09-19T08:08:34;1.10;;;1.10;;
31182;SDS011;17813;0.000;0.000;2023-09-19T08:11:05;1.50;;;1.00;;
31182;SDS011;17813;0.000;0.000;2023-09-19T08:13:39;1.80;;;0.95;;
31182;SDS011;17813;0.000;0.000;2023-09-19T08:16:18;1.58;;;1.00;;
31182;SDS011;17813;0.000;0.000;2023-09-19T08:18:48;1.25;;;1.10;;
31182;SDS011;17813;0.000;0.000;2023-09-19T08:21:22;0.93;;;0.88;;
31182;SDS011;17813;0.000;0.000;2023-09-19T08:23:52;0.88;;;0.80;;
31182;SDS011;17813;0.000;0.000;2023-09-19T08:26:24;0.93;;;0.85;;
31182;SDS011;17813;0.000;0.000;2023-09-19T08:28:54;0.82;;;0.82;;
31182;SDS011;17813;0.000;0.000;2023-09-19T08:31:21;0.80;;;0.80;;
31182;SDS011;17813;0.000;0.000;2023-09-19T08:33:49;1.05;;;0.80;;
31182;SDS011;17813;0.000;0.000;2023-09-19T08:36:18;1.42;;;1.00;;
31182;SDS011;17813;0.000;0.000;2023-09-19T08:38:45;1.42;;;0.90;;
31182;SDS011;17813;0.000;0.000;2023-09-19T08:41:16;0.95;;;0.90;;
31182;SDS011;17813;0.000;0.000;2023-09-19T08:43:52;0.98;;;0.90;;
31182;SDS011;17813;0.000;0.000;2023-09-19T08:46:20;0.68;;;0.68;;
31182;SDS011;17813;0.000;0.000;2023-09-19T08:49:05;1.33;;;0.90;;
31182;SDS011;17813;0.000;0.000;2023-09-19T08:51:52;1.85;;;1.05;;
31182;SDS011;17813;0.000;0.000;2023-09-19T08:54:33;1.85;;;0.77;;
31182;SDS011;17813;0.000;0.000;2023-09-19T08:57:07;0.93;;;0.82;;
31182;SDS011;17813;0.000;0.000;2023-09-19T08:59:41;1.65;;;0.90;;
31182;SDS011;17813;0.000;0.000;2023-09-19T09:02:11;1.77;;;0.88;;
31182;SDS011;17813;0.000;0.000;2023-09-19T09:04:41;1.40;;;0.80;;
31182;SDS011;17813;0.000;0.000;2023-09-19T09:07:11;1.33;;;0.95;;
31182;SDS011;17813;0.000;0.000;2023-09-19T09:09:40;1.35;;;0.90;;
31182;SDS011;17813;0.000;0.000;2023-09-19T09:12:09;1.45;;;1.00;;
31182;SDS011;17813;0.000;0.000;2023-09-19T09:14:38;1.20;;;1.00;;
31182;SDS011;17813;0.000;0.000;2023-09-19T09:17:07;1.02;;;0.93;;
31182;SDS011;17813;0.000;0.000;2023-09-19T09:19:35;1.10;;;1.00;;
31182;SDS011;17813;0.000;0.000;2023-09-19T09:22:11;1.25;;;1.13;;
31182;SDS011;17813;0.000;0.000;2023-09-19T09:24:51;1.20;;;1.10;;
31182;SDS011;17813;0.000;0.000;2023-09-19T09:27:30;1.17;;;1.08;;
31182;SDS011;17813;0.000;0.000;2023-09-19T09:29:59;1.02;;;0.88;;
31182;SDS011;17813;0.000;0.000;2023-09-19T09:35:07;1.65;;;1.00;;
31182;SDS011;17813;0.000;0.000;2023-09-19T09:37:41;0.80;;;0.80;;
31182;SDS011;17813;0.000;0.000;2023-09-19T09:40:13;1.33;;;1.20;;
31182;SDS011;17813;0.000;0.000;2023-09-19T09:42:40;1.25;;;1.15;;
31182;SDS011;17813;0.000;0.000;2023-09-19T09:45:22;1.30;;;1.20;;
31182;SDS011;17813;0.000;0.000;2023-09-19T09:48:00;1.23;;;1.08;;
31182;SDS011;17813;0.000;0.000;2023-09-19T09:50:48;1.10;;;0.90;;
31182;SDS011;17813;0.000;0.000;2023-09-19T09:53:23;2.05;;;1.27;;
31182;SDS011;17813;0.000;0.000;2023-09-19T09:56:01;1.42;;;0.90;;
31182;SDS011;17813;0.000;0.000;2023-09-19T09:58:51;0.90;;;0.88;;
31182;SDS011;17813;0.000;0.000;2023-09-19T10:01:25;1.05;;;0.82;;
31182;SDS011;17813;0.000;0.000;2023-09-19T10:03:57;1.20;;;0.88;;
31182;SDS011;17813;0.000;0.000;2023-09-19T10:06:26;1.13;;;1.00;;
31182;SDS011;17813;0.000;0.000;2023-09-19T10:09:06;1.88;;;1.10;;
31182;SDS011;17813;0.000;0.000;2023-09-19T10:11:44;1.33;;;1.10;;
31182;SDS011;17813;0.000;0.000;2023-09-19T10:14:26;2.05;;;1.10;;
31182;SDS011;17813;0.000;0.000;2023-09-19T10:17:00;1.60;;;1.15;;
31182;SDS011;17813;0.000;0.000;2023-09-19T10:19:46;2.20;;;1.35;;
31182;SDS011;17813;0.000;0.000;2023-09-19T10:22:28;4.60;;;1.30;;
31182;SDS011;17813;0.000;0.000;2023-09-19T10:24:59;1.20;;;1.10;;
31182;SDS011;17813;0.000;0.000;2023-09-19T10:27:29;0.93;;;0.85;;
31182;SDS011;17813;0.000;0.000;2023-09-19T10:30:05;1.42;;;1.10;;
31182;SDS011;17813;0.000;0.000;2023-09-19T10:32:39;1.08;;;0.98;;
31182;SDS011;17813;0.000;0.000;2023-09-19T10:35:07;1.65;;;1.00;;
31182;SDS011;17813;0.000;0.000;2023-09-19T10:37:39;1.23;;;1.10;;
31182;SDS011;17813;0.000;0.000;2023-09-19T10:40:10;1.52;;;1.20;;
31182;SDS011;17813;0.000;0.000;2023-09-19T10:42:39;1.58;;;1.17;;
31182;SDS011;17813;0.000;0.000;2023-09-19T10:45:08;1.83;;;1.25;;
31182;SDS011;17813;0.000;0.000;2023-09-19T10:47:39;1.88;;;1.10;;
31182;SDS011;17813;0.000;0.000;2023-09-19T10:50:07;1.30;;;1.13;;
31182;SDS011;17813;0.000;0.000;2023-09-19T10:52:37;1.60;;;1.27;;
31182;SDS011;17813;0.000;0.000;2023-09-19T10:55:09;4.65;;;1.20;;
31182;SDS011;17813;0.000;0.000;2023-09-19T10:57:44;1.10;;;1.00;;
31182;SDS011;17813;0.000;0.000;2023-09-19T11:00:18;1.77;;;1.48;;
31182;SDS011;17813;0.000;0.000;2023-09-19T11:05:42;1.85;;;1.67;;
31182;SDS011;17813;0.000;0.000;2023-09-19T11:08:26;2.53;;;1.70;;
31182;SDS011;17813;0.000;0.000;2023-09-19T11:10:55;2.63;;;1.90;;
31182;SDS011;17813;0.000;0.000;2023-09-19T11:13:29;2.75;;;2.20;;
31182;SDS011;17813;0.000;0.000;2023-09-19T11:16:04;1.80;;;1.65;;
31182;SDS011;17813;0.000;0.000;2023-09-19T11:26:50;1.48;;;1.38;;
31182;SDS011;17813;0.000;0.000;2023-09-19T11:29:34;2.35;;;1.50;;
31182;SDS011;17813;0.000;0.000;2023-09-19T11:32:10;2.47;;;1.60;;
31182;SDS011;17813;0.000;0.000;2023-09-19T11:35:00;1.50;;;1.40;;
31182;SDS011;17813;0.000;0.000;2023-09-19T11:40:08;2.05;;;1.70;;
31182;SDS011;17813;0.000;0.000;2023-09-19T11:48:06;2.22;;;1.50;;
31182;SDS011;17813;0.000;0.000;2023-09-19T11:50:34;2.47;;;1.80;;
31182;SDS011;17813;0.000;0.000;2023-09-19T11:53:14;1.85;;;1.52;;
31182;SDS011;17813;0.000;0.000;2023-09-19T11:55:45;1.70;;;1.60;;
31182;SDS011;17813;0.000;0.000;2023-09-19T11:58:18;1.63;;;1.42;;
31182;SDS011;17813;0.000;0.000;2023-09-19T12:00:46;1.55;;;1.45;;
31182;SDS011;17813;0.000;0.000;2023-09-19T12:03:29;1.50;;;1.40;;
31182;SDS011;17813;0.000;0.000;2023-09-19T12:05:58;2.38;;;1.45;;
31182;SDS011;17813;0.000;0.000;2023-09-19T12:08:25;4.57;;;1.83;;
31182;SDS011;17813;0.000;0.000;2023-09-19T12:10:55;2.55;;;1.90;;
31182;SDS011;17813;0.000;0.000;2023-09-19T12:13:23;4.15;;;1.90;;
31182;SDS011;17813;0.000;0.000;2023-09-19T12:15:52;3.38;;;1.83;;
31182;SDS011;17813;0.000;0.000;2023-09-19T12:18:31;1.95;;;1.70;;
31182;SDS011;17813;0.000;0.000;2023-09-19T12:21:01;2.40;;;1.80;;
31182;SDS011;17813;0.000;0.000;2023-09-19T12:23:30;2.67;;;2.00;;
31182;SDS011;17813;0.000;0.000;2023-09-19T12:25:57;2.25;;;1.80;;
31182;SDS011;17813;0.000;0.000;2023-09-19T12:28:46;2.80;;;2.05;;
31182;SDS011;17813;0.000;0.000;2023-09-19T12:31:14;2.45;;;2.00;;
31182;SDS011;17813;0.000;0.000;2023-09-19T12:33:43;1.95;;;1.77;;
31182;SDS011;17813;0.000;0.000;2023-09-19T12:36:23;3.08;;;1.90;;
31182;SDS011;17813;0.000;0.000;2023-09-19T12:38:59;2.15;;;1.95;;
31182;SDS011;17813;0.000;0.000;2023-09-19T12:41:26;2.75;;;2.00;;
31182;SDS011;17813;0.000;0.000;2023-09-19T12:43:56;4.50;;;2.03;;
31182;SDS011;17813;0.000;0.000;2023-09-19T12:46:26;2.03;;;1.73;;
31182;SDS011;17813;0.000;0.000;2023-09-19T12:49:18;2.38;;;1.70;;
31182;SDS011;17813;0.000;0.000;2023-09-19T12:51:47;2.17;;;1.98;;
31182;SDS011;17813;0.000;0.000;2023-09-19T12:54:15;1.80;;;1.70;;
31182;SDS011;17813;0.000;0.000;2023-09-19T12:57:03;2.25;;;1.70;;
31182;SDS011;17813;0.000;0.000;2023-09-19T12:59:30;2.10;;;1.90;;
31182;SDS011;17813;0.000;0.000;2023-09-19T13:02:08;2.40;;;1.77;;
31182;SDS011;17813;0.000;0.000;2023-09-19T13:04:51;2.15;;;1.70;;
31182;SDS011;17813;0.000;0.000;2023-09-19T13:07:40;2.33;;;1.77;;
31182;SDS011;17813;0.000;0.000;2023-09-19T13:10:11;2.50;;;2.05;;
31182;SDS011;17813;0.000;0.000;2023-09-19T13:13:22;2.05;;;1.80;;
31182;SDS011;17813;0.000;0.000;2023-09-19T13:15:56;2.10;;;1.90;;
31182;SDS011;17813;0.000;0.000;2023-09-19T13:18:24;2.33;;;1.83;;
31182;SDS011;17813;0.000;0.000;2023-09-19T13:21:06;3.60;;;1.92;;
31182;SDS011;17813;0.000;0.000;2023-09-19T13:23:41;2.35;;;1.90;;
31182;SDS011;17813;0.000;0.000;2023-09-19T13:26:10;2.45;;;1.80;;
31182;SDS011;17813;0.000;0.000;2023-09-19T13:28:37;2.28;;;2.00;;
31182;SDS011;17813;0.000;0.000;2023-09-19T13:31:06;3.80;;;2.20;;
31182;SDS011;17813;0.000;0.000;2023-09-19T13:33:48;3.22;;;1.98;;
31182;SDS011;17813;0.000;0.000;2023-09-19T13:36:16;2.40;;;2.20;;
31182;SDS011;17813;0.000;0.000;2023-09-19T13:39:02;2.38;;;2.17;;
31182;SDS011;17813;0.000;0.000;2023-09-19T13:41:47;2.78;;;2.00;;
31182;SDS011;17813;0.000;0.000;2023-09-19T13:44:16;2.67;;;2.10;;
31182;SDS011;17813;0.000;0.000;2023-09-19T13:46:44;2.17;;;1.98;;
31182;SDS011;17813;0.000;0.000;2023-09-19T13:49:23;2.90;;;2.17;;
31182;SDS011;17813;0.000;0.000;2023-09-19T13:51:51;2.55;;;1.95;;
31182;SDS011;17813;0.000;0.000;2023-09-19T13:54:21;2.13;;;1.98;;
31182;SDS011;17813;0.000;0.000;2023-09-19T13:57:06;2.55;;;2.10;;
31182;SDS011;17813;0.000;0.000;2023-09-19T13:59:41;4.40;;;2.10;;
31182;SDS011;17813;0.000;0.000;2023-09-19T14:02:09;3.55;;;2.30;;
31182;SDS011;17813;0.000;0.000;2023-09-19T14:04:36;2.47;;;2.00;;
31182;SDS011;17813;0.000;0.000;2023-09-19T14:07:23;2.47;;;2.28;;
31182;SDS011;17813;0.000;0.000;2023-09-19T14:09:56;2.63;;;2.13;;
31182;SDS011;17813;0.000;0.000;2023-09-19T14:12:23;3.25;;;2.08;;
31182;SDS011;17813;0.000;0.000;2023-09-19T14:14:51;3.05;;;2.05;;
31182;SDS011;17813;0.000;0.000;2023-09-19T14:17:19;3.22;;;2.08;;
31182;SDS011;17813;0.000;0.000;2023-09-19T14:19:47;3.05;;;2.13;;
31182;SDS011;17813;0.000;0.000;2023-09-19T14:22:14;2.35;;;1.90;;
31182;SDS011;17813;0.000;0.000;2023-09-19T14:24:41;3.90;;;2.25;;
31182;SDS011;17813;0.000;0.000;2023-09-19T14:27:09;2.17;;;1.98;;
31182;SDS011;17813;0.000;0.000;2023-09-19T14:29:42;2.63;;;2.25;;
31182;SDS011;17813;0.000;0.000;2023-09-19T14:32:27;2.70;;;2.20;;
31182;SDS011;17813;0.000;0.000;2023-09-19T14:34:55;2.45;;;2.10;;
31182;SDS011;17813;0.000;0.000;2023-09-19T14:37:21;3.20;;;2.13;;
31182;SDS011;17813;0.000;0.000;2023-09-19T14:39:55;3.15;;;2.15;;
31182;SDS011;17813;0.000;0.000;2023-09-19T14:42:22;2.92;;;2.30;;
31182;SDS011;17813;0.000;0.000;2023-09-19T14:44:49;3.20;;;2.40;;
31182;SDS011;17813;0.000;0.000;2023-09-19T14:47:22;2.90;;;2.20;;
31182;SDS011;17813;0.000;0.000;2023-09-19T14:49:59;3.75;;;2.63;;
31182;SDS011;17813;0.000;0.000;2023-09-19T14:52:28;3.88;;;2.40;;
31182;SDS011;17813;0.000;0.000;2023-09-19T14:55:14;3.63;;;2.75;;
31182;SDS011;17813;0.000;0.000;2023-09-19T14:57:41;2.92;;;2.40;;
31182;SDS011;17813;0.000;0.000;2023-09-19T15:00:12;2.83;;;2.38;;
31182;SDS011;17813;0.000;0.000;2023-09-19T15:02:39;3.40;;;2.38;;
31182;SDS011;17813;0.000;0.000;2023-09-19T15:05:13;5.15;;;2.85;;
31182;SDS011;17813;0.000;0.000;2023-09-19T15:07:41;3.38;;;2.47;;
31182;SDS011;17813;0.000;0.000;2023-09-19T15:10:08;3.13;;;2.40;;
31182;SDS011;17813;0.000;0.000;2023-09-19T15:12:45;4.20;;;2.50;;
31182;SDS011;17813;0.000;0.000;2023-09-19T15:15:12;3.65;;;2.80;;
31182;SDS011;17813;0.000;0.000;2023-09-19T15:17:40;3.67;;;2.60;;
31182;SDS011;17813;0.000;0.000;2023-09-19T15:20:07;3.30;;;2.45;;
31182;SDS011;17813;0.000;0.000;2023-09-19T15:22:42;4.82;;;2.63;;
31182;SDS011;17813;0.000;0.000;2023-09-19T15:25:10;3.17;;;2.60;;
31182;SDS011;17813;0.000;0.000;2023-09-19T15:27:50;3.63;;;2.60;;
31182;SDS011;17813;0.000;0.000;2023-09-19T15:30:17;3.40;;;2.40;;
31182;SDS011;17813;0.000;0.000;2023-09-19T15:32:47;2.65;;;2.30;;
31182;SDS011;17813;0.000;0.000;2023-09-19T15:35:14;3.35;;;2.55;;
31182;SDS011;17813;0.000;0.000;2023-09-19T15:37:49;2.58;;;2.30;;
31182;SDS011;17813;0.000;0.000;2023-09-19T15:40:36;2.60;;;2.40;;
31182;SDS011;17813;0.000;0.000;2023-09-19T15:43:16;3.72;;;2.60;;
31182;SDS011;17813;0.000;0.000;2023-09-19T15:45:43;3.30;;;2.30;;
31182;SDS011;17813;0.000;0.000;2023-09-19T15:48:13;3.00;;;2.50;;
31182;SDS011;17813;0.000;0.000;2023-09-19T15:50:40;4.72;;;2.80;;
31182;SDS011;17813;0.000;0.000;2023-09-19T15:53:07;4.05;;;2.70;;
31182;SDS011;17813;0.000;0.000;2023-09-19T15:55:38;2.38;;;2.15;;
31182;SDS011;17813;0.000;0.000;2023-09-19T15:58:06;3.13;;;2.35;;
31182;SDS011;17813;0.000;0.000;2023-09-19T16:00:33;3.53;;;2.67;;
31182;SDS011;17813;0.000;0.000;2023-09-19T16:03:02;4.18;;;2.30;;
31182;SDS011;17813;0.000;0.000;2023-09-19T16:05:36;3.63;;;2.50;;
31182;SDS011;17813;0.000;0.000;2023-09-19T16:08:05;2.85;;;2.35;;
31182;SDS011;17813;0.000;0.000;2023-09-19T16:10:43;2.92;;;2.63;;
31182;SDS011;17813;0.000;0.000;2023-09-19T16:13:15;2.60;;;2.35;;
31182;SDS011;17813;0.000;0.000;2023-09-19T16:15:42;3.75;;;2.60;;